sensor_id;sensor_type;location;lat;lon;timestamp;pressure;altitude;pressure_sealevel;temperature
69552;BMP280;58993;45.320;11.864;2022-09-12T00:01:51;101913.55;;;26.01
69552;BMP280;58993;45.320;11.864;2022-09-12T00:04:17;101912.31;;;26.00
69552;BMP280;58993;45.320;11.864;2022-09-12T00:06:43;101913.28;;;25.99
69552;BMP280;58993;45.320;11.864;2022-09-12T00:09:11;101915.35;;;25.98
69552;BMP280;58993;45.320;11.864;2022-09-12T00:11:40;101915.70;;;25.97
69552;BMP280;58993;45.320;11.864;2022-09-12T00:14:07;101916.27;;;25.93
69552;BMP280;58993;45.320;11.864;2022-09-12T00:16:35;101917.47;;;25.92
69552;BMP280;58993;45.320;11.864;2022-09-12T00:19:02;101917.42;;;25.92
69552;BMP280;58993;45.320;11.864;2022-09-12T00:21:28;101914.50;;;25.90
69552;BMP280;58993;45.320;11.864;2022-09-12T00:23:54;101914.66;;;25.89
69552;BMP280;58993;45.320;11.864;2022-09-12T00:26:20;101911.48;;;25.87
69552;BMP280;58993;45.320;11.864;2022-09-12T00:28:46;101913.17;;;25.87
69552;BMP280;58993;45.320;11.864;2022-09-12T00:31:15;101911.40;;;25.85
69552;BMP280;58993;45.320;11.864;2022-09-12T00:33:41;101914.33;;;25.83
69552;BMP280;58993;45.320;11.864;2022-09-12T00:36:10;101914.09;;;25.83
69552;BMP280;58993;45.320;11.864;2022-09-12T00:38:36;101914.39;;;25.85
69552;BMP280;58993;45.320;11.864;2022-09-12T00:41:10;101914.88;;;25.89
69552;BMP280;58993;45.320;11.864;2022-09-12T00:43:40;101911.23;;;25.88
69552;BMP280;58993;45.320;11.864;2022-09-12T00:49:30;101908.44;;;25.88
69552;BMP280;58993;45.320;11.864;2022-09-12T00:54:38;101913.92;;;25.86
69552;BMP280;58993;45.320;11.864;2022-09-12T00:57:07;101912.60;;;25.86
69552;BMP280;58993;45.320;11.864;2022-09-12T00:59:41;101916.34;;;25.85
69552;BMP280;58993;45.320;11.864;2022-09-12T01:02:09;101920.92;;;25.85
69552;BMP280;58993;45.320;11.864;2022-09-12T01:04:36;101921.31;;;25.83
69552;BMP280;58993;45.320;11.864;2022-09-12T01:07:03;101921.95;;;25.82
69552;BMP280;58993;45.320;11.864;2022-09-12T01:09:31;101921.12;;;25.82
69552;BMP280;58993;45.320;11.864;2022-09-12T01:11:56;101914.48;;;25.81
69552;BMP280;58993;45.320;11.864;2022-09-12T01:14:23;101912.48;;;25.81
69552;BMP280;58993;45.320;11.864;2022-09-12T01:16:49;101912.05;;;25.80
69552;BMP280;58993;45.320;11.864;2022-09-12T01:30:40;101913.04;;;25.87
69552;BMP280;58993;45.320;11.864;2022-09-12T01:38:49;101909.98;;;25.84
69552;BMP280;58993;45.320;11.864;2022-09-12T01:52:19;101909.05;;;25.78
69552;BMP280;58993;45.320;11.864;2022-09-12T01:55:01;101907.05;;;25.75
69552;BMP280;58993;45.320;11.864;2022-09-12T01:57:41;101909.35;;;25.75
69552;BMP280;58993;45.320;11.864;2022-09-12T02:00:11;101905.29;;;25.76
69552;BMP280;58993;45.320;11.864;2022-09-12T02:02:38;101902.73;;;25.76
69552;BMP280;58993;45.320;11.864;2022-09-12T02:05:11;101901.95;;;25.76
69552;BMP280;58993;45.320;11.864;2022-09-12T02:07:44;101902.09;;;25.76
69552;BMP280;58993;45.320;11.864;2022-09-12T02:10:15;101898.77;;;25.74
69552;BMP280;58993;45.320;11.864;2022-09-12T02:12:52;101898.45;;;25.78
69552;BMP280;58993;45.320;11.864;2022-09-12T02:15:22;101895.44;;;25.75
69552;BMP280;58993;45.320;11.864;2022-09-12T02:17:52;101894.38;;;25.75
69552;BMP280;58993;45.320;11.864;2022-09-12T02:20:22;101890.27;;;25.74
69552;BMP280;58993;45.320;11.864;2022-09-12T02:22:49;101882.80;;;25.75
69552;BMP280;58993;45.320;11.864;2022-09-12T02:25:18;101882.04;;;25.70
69552;BMP280;58993;45.320;11.864;2022-09-12T02:27:50;101886.09;;;25.73
69552;BMP280;58993;45.320;11.864;2022-09-12T02:30:18;101886.41;;;25.71
69552;BMP280;58993;45.320;11.864;2022-09-12T02:35:45;101880.83;;;25.67
69552;BMP280;58993;45.320;11.864;2022-09-12T02:38:19;101877.96;;;25.65
69552;BMP280;58993;45.320;11.864;2022-09-12T02:40:49;101876.74;;;25.63
69552;BMP280;58993;45.320;11.864;2022-09-12T02:43:14;101873.00;;;25.62
69552;BMP280;58993;45.320;11.864;2022-09-12T02:45:40;101872.36;;;25.60
69552;BMP280;58993;45.320;11.864;2022-09-12T02:50:31;101875.48;;;25.61
69552;BMP280;58993;45.320;11.864;2022-09-12T02:52:57;101877.21;;;25.62
69552;BMP280;58993;45.320;11.864;2022-09-12T02:55:29;101874.54;;;25.61
69552;BMP280;58993;45.320;11.864;2022-09-12T02:57:55;101874.20;;;25.62
69552;BMP280;58993;45.320;11.864;2022-09-12T03:00:21;101873.73;;;25.62
69552;BMP280;58993;45.320;11.864;2022-09-12T03:06:01;101874.62;;;25.63
69552;BMP280;58993;45.320;11.864;2022-09-12T03:11:17;101873.89;;;25.64
69552;BMP280;58993;45.320;11.864;2022-09-12T03:16:30;101868.58;;;25.62
69552;BMP280;58993;45.320;11.864;2022-09-12T03:19:22;101867.18;;;25.61
69552;BMP280;58993;45.320;11.864;2022-09-12T03:22:33;101863.39;;;25.58
69552;BMP280;58993;45.320;11.864;2022-09-12T03:25:13;101865.27;;;25.56
69552;BMP280;58993;45.320;11.864;2022-09-12T03:27:56;101865.37;;;25.57
69552;BMP280;58993;45.320;11.864;2022-09-12T03:30:22;101867.64;;;25.55
69552;BMP280;58993;45.320;11.864;2022-09-12T03:32:50;101866.77;;;25.54
69552;BMP280;58993;45.320;11.864;2022-09-12T03:35:18;101868.66;;;25.53
69552;BMP280;58993;45.320;11.864;2022-09-12T03:37:44;101872.42;;;25.52
69552;BMP280;58993;45.320;11.864;2022-09-12T03:40:10;101875.39;;;25.51
69552;BMP280;58993;45.320;11.864;2022-09-12T03:42:37;101875.56;;;25.52
69552;BMP280;58993;45.320;11.864;2022-09-12T03:45:03;101876.59;;;25.54
69552;BMP280;58993;45.320;11.864;2022-09-12T03:47:29;101876.70;;;25.53
69552;BMP280;58993;45.320;11.864;2022-09-12T03:49:55;101878.02;;;25.52
69552;BMP280;58993;45.320;11.864;2022-09-12T03:52:21;101881.20;;;25.55
69552;BMP280;58993;45.320;11.864;2022-09-12T03:54:47;101879.24;;;25.56
69552;BMP280;58993;45.320;11.864;2022-09-12T03:57:13;101879.36;;;25.56
69552;BMP280;58993;45.320;11.864;2022-09-12T03:59:38;101877.48;;;25.56
69552;BMP280;58993;45.320;11.864;2022-09-12T04:02:04;101879.84;;;25.55
69552;BMP280;58993;45.320;11.864;2022-09-12T04:04:30;101877.79;;;25.54
69552;BMP280;58993;45.320;11.864;2022-09-12T04:06:55;101879.20;;;25.55
69552;BMP280;58993;45.320;11.864;2022-09-12T04:09:21;101881.98;;;25.56
69552;BMP280;58993;45.320;11.864;2022-09-12T04:11:46;101883.77;;;25.55
69552;BMP280;58993;45.320;11.864;2022-09-12T04:14:12;101882.27;;;25.54
69552;BMP280;58993;45.320;11.864;2022-09-12T04:16:37;101883.58;;;25.53
69552;BMP280;58993;45.320;11.864;2022-09-12T04:19:03;101884.02;;;25.49
69552;BMP280;58993;45.320;11.864;2022-09-12T04:21:29;101883.94;;;25.47
69552;BMP280;58993;45.320;11.864;2022-09-12T04:23:55;101882.42;;;25.44
69552;BMP280;58993;45.320;11.864;2022-09-12T04:26:20;101882.13;;;25.41
69552;BMP280;58993;45.320;11.864;2022-09-12T04:28:46;101881.61;;;25.40
69552;BMP280;58993;45.320;11.864;2022-09-12T04:31:17;101884.69;;;25.39
69552;BMP280;58993;45.320;11.864;2022-09-12T04:33:45;101888.38;;;25.40
69552;BMP280;58993;45.320;11.864;2022-09-12T04:36:13;101886.45;;;25.42
69552;BMP280;58993;45.320;11.864;2022-09-12T04:38:41;101886.05;;;25.43
69552;BMP280;58993;45.320;11.864;2022-09-12T04:43:36;101887.70;;;25.42
69552;BMP280;58993;45.320;11.864;2022-09-12T04:46:09;101888.40;;;25.41
69552;BMP280;58993;45.320;11.864;2022-09-12T04:48:36;101888.98;;;25.38
69552;BMP280;58993;45.320;11.864;2022-09-12T04:53:32;101892.08;;;25.38
69552;BMP280;58993;45.320;11.864;2022-09-12T04:56:01;101892.27;;;25.34
69552;BMP280;58993;45.320;11.864;2022-09-12T04:58:26;101895.94;;;25.33
69552;BMP280;58993;45.320;11.864;2022-09-12T05:00:52;101900.65;;;25.34
69552;BMP280;58993;45.320;11.864;2022-09-12T05:03:17;101900.31;;;25.33
69552;BMP280;58993;45.320;11.864;2022-09-12T05:05:43;101898.91;;;25.34
69552;BMP280;58993;45.320;11.864;2022-09-12T05:08:08;101900.55;;;25.36
69552;BMP280;58993;45.320;11.864;2022-09-12T05:10:34;101900.50;;;25.35
69552;BMP280;58993;45.320;11.864;2022-09-12T05:12:59;101905.10;;;25.37
69552;BMP280;58993;45.320;11.864;2022-09-12T05:15:24;101904.16;;;25.38
69552;BMP280;58993;45.320;11.864;2022-09-12T05:17:50;101905.45;;;25.35
69552;BMP280;58993;45.320;11.864;2022-09-12T05:20:15;101907.44;;;25.34
69552;BMP280;58993;45.320;11.864;2022-09-12T05:22:41;101910.31;;;25.35
69552;BMP280;58993;45.320;11.864;2022-09-12T05:25:07;101912.58;;;25.35
69552;BMP280;58993;45.320;11.864;2022-09-12T05:27:33;101912.42;;;25.37
69552;BMP280;58993;45.320;11.864;2022-09-12T05:29:59;101916.13;;;25.40
69552;BMP280;58993;45.320;11.864;2022-09-12T05:32:24;101918.06;;;25.41
69552;BMP280;58993;45.320;11.864;2022-09-12T05:34:49;101919.59;;;25.42
69552;BMP280;58993;45.320;11.864;2022-09-12T05:37:15;101916.96;;;25.38
69552;BMP280;58993;45.320;11.864;2022-09-12T05:39:41;101916.73;;;25.37
69552;BMP280;58993;45.320;11.864;2022-09-12T05:42:06;101919.48;;;25.34
69552;BMP280;58993;45.320;11.864;2022-09-12T05:44:33;101923.94;;;25.34
69552;BMP280;58993;45.320;11.864;2022-09-12T05:46:58;101925.75;;;25.35
69552;BMP280;58993;45.320;11.864;2022-09-12T05:49:24;101925.39;;;25.35
69552;BMP280;58993;45.320;11.864;2022-09-12T05:51:49;101930.84;;;25.35
69552;BMP280;58993;45.320;11.864;2022-09-12T05:54:17;101933.13;;;25.37
69552;BMP280;58993;45.320;11.864;2022-09-12T05:56:44;101937.51;;;25.39
69552;BMP280;58993;45.320;11.864;2022-09-12T05:59:12;101937.50;;;25.42
69552;BMP280;58993;45.320;11.864;2022-09-12T06:01:38;101936.73;;;25.44
69552;BMP280;58993;45.320;11.864;2022-09-12T06:04:05;101939.67;;;25.48
69552;BMP280;58993;45.320;11.864;2022-09-12T06:06:33;101941.82;;;25.47
69552;BMP280;58993;45.320;11.864;2022-09-12T06:09:01;101940.61;;;25.49
69552;BMP280;58993;45.320;11.864;2022-09-12T06:11:29;101944.36;;;25.50
69552;BMP280;58993;45.320;11.864;2022-09-12T06:13:56;101945.38;;;25.53
69552;BMP280;58993;45.320;11.864;2022-09-12T06:16:27;101942.90;;;25.54
69552;BMP280;58993;45.320;11.864;2022-09-12T06:19:05;101944.52;;;25.56
69552;BMP280;58993;45.320;11.864;2022-09-12T06:21:31;101943.05;;;25.58
69552;BMP280;58993;45.320;11.864;2022-09-12T06:23:59;101946.19;;;25.58
69552;BMP280;58993;45.320;11.864;2022-09-12T06:26:26;101947.73;;;25.59
69552;BMP280;58993;45.320;11.864;2022-09-12T06:28:54;101947.08;;;25.59
69552;BMP280;58993;45.320;11.864;2022-09-12T06:31:34;101951.23;;;25.61
69552;BMP280;58993;45.320;11.864;2022-09-12T06:34:03;101950.38;;;25.62
69552;BMP280;58993;45.320;11.864;2022-09-12T06:36:32;101952.92;;;25.63
69552;BMP280;58993;45.320;11.864;2022-09-12T06:39:03;101949.66;;;25.60
69552;BMP280;58993;45.320;11.864;2022-09-12T06:41:30;101951.16;;;25.62
69552;BMP280;58993;45.320;11.864;2022-09-12T06:43:57;101949.48;;;25.63
69552;BMP280;58993;45.320;11.864;2022-09-12T06:46:23;101946.25;;;25.61
69552;BMP280;58993;45.320;11.864;2022-09-12T06:48:49;101948.36;;;25.64
69552;BMP280;58993;45.320;11.864;2022-09-12T06:51:17;101947.52;;;25.65
69552;BMP280;58993;45.320;11.864;2022-09-12T06:53:45;101946.16;;;25.61
69552;BMP280;58993;45.320;11.864;2022-09-12T06:56:13;101949.79;;;25.63
69552;BMP280;58993;45.320;11.864;2022-09-12T06:58:40;101947.89;;;25.64
69552;BMP280;58993;45.320;11.864;2022-09-12T07:01:14;101948.52;;;25.64
69552;BMP280;58993;45.320;11.864;2022-09-12T07:03:41;101944.60;;;25.64
69552;BMP280;58993;45.320;11.864;2022-09-12T07:06:08;101946.60;;;25.65
69552;BMP280;58993;45.320;11.864;2022-09-12T07:08:35;101944.41;;;25.65
69552;BMP280;58993;45.320;11.864;2022-09-12T07:11:16;101941.79;;;25.66
69552;BMP280;58993;45.320;11.864;2022-09-12T07:13:43;101945.55;;;25.67
69552;BMP280;58993;45.320;11.864;2022-09-12T07:16:09;101943.20;;;25.68
69552;BMP280;58993;45.320;11.864;2022-09-12T07:18:36;101946.54;;;25.69
69552;BMP280;58993;45.320;11.864;2022-09-12T07:21:08;101948.96;;;25.71
69552;BMP280;58993;45.320;11.864;2022-09-12T07:23:34;101948.30;;;25.68
69552;BMP280;58993;45.320;11.864;2022-09-12T07:26:00;101950.23;;;25.71
69552;BMP280;58993;45.320;11.864;2022-09-12T07:28:28;101949.65;;;25.72
69552;BMP280;58993;45.320;11.864;2022-09-12T07:30:54;101950.84;;;25.72
69552;BMP280;58993;45.320;11.864;2022-09-12T07:33:21;101952.72;;;25.72
69552;BMP280;58993;45.320;11.864;2022-09-12T07:35:47;101953.95;;;25.75
69552;BMP280;58993;45.320;11.864;2022-09-12T07:38:16;101951.80;;;25.74
69552;BMP280;58993;45.320;11.864;2022-09-12T07:40:42;101952.02;;;25.72
69552;BMP280;58993;45.320;11.864;2022-09-12T07:43:08;101952.49;;;25.71
69552;BMP280;58993;45.320;11.864;2022-09-12T07:45:34;101953.02;;;25.71
69552;BMP280;58993;45.320;11.864;2022-09-12T07:47:59;101952.27;;;25.72
69552;BMP280;58993;45.320;11.864;2022-09-12T07:50:25;101952.67;;;25.72
69552;BMP280;58993;45.320;11.864;2022-09-12T07:52:52;101952.00;;;25.73
69552;BMP280;58993;45.320;11.864;2022-09-12T07:55:19;101952.66;;;25.76
69552;BMP280;58993;45.320;11.864;2022-09-12T07:57:48;101951.20;;;25.76
69552;BMP280;58993;45.320;11.864;2022-09-12T08:00:14;101950.17;;;25.77
69552;BMP280;58993;45.320;11.864;2022-09-12T08:02:40;101950.21;;;25.78
69552;BMP280;58993;45.320;11.864;2022-09-12T08:05:05;101951.95;;;25.81
69552;BMP280;58993;45.320;11.864;2022-09-12T08:07:31;101944.69;;;25.79
69552;BMP280;58993;45.320;11.864;2022-09-12T08:09:58;101943.28;;;25.81
69552;BMP280;58993;45.320;11.864;2022-09-12T08:12:26;101946.73;;;25.85
69552;BMP280;58993;45.320;11.864;2022-09-12T08:14:52;101945.07;;;25.85
69552;BMP280;58993;45.320;11.864;2022-09-12T08:17:18;101946.42;;;25.85
69552;BMP280;58993;45.320;11.864;2022-09-12T08:19:43;101949.73;;;25.87
69552;BMP280;58993;45.320;11.864;2022-09-12T08:22:10;101948.14;;;25.85
69552;BMP280;58993;45.320;11.864;2022-09-12T08:24:36;101949.11;;;25.86
69552;BMP280;58993;45.320;11.864;2022-09-12T08:27:04;101950.70;;;25.88
69552;BMP280;58993;45.320;11.864;2022-09-12T08:29:30;101949.90;;;25.87
69552;BMP280;58993;45.320;11.864;2022-09-12T08:31:55;101947.61;;;25.87
69552;BMP280;58993;45.320;11.864;2022-09-12T08:34:21;101948.40;;;25.88
69552;BMP280;58993;45.320;11.864;2022-09-12T08:36:46;101948.48;;;25.90
69552;BMP280;58993;45.320;11.864;2022-09-12T08:39:12;101954.44;;;25.90
69552;BMP280;58993;45.320;11.864;2022-09-12T08:41:44;101955.64;;;25.92
69552;BMP280;58993;45.320;11.864;2022-09-12T08:44:33;101956.11;;;25.95
69552;BMP280;58993;45.320;11.864;2022-09-12T08:52:32;101963.59;;;26.03
69552;BMP280;58993;45.320;11.864;2022-09-12T08:55:02;101962.77;;;26.04
69552;BMP280;58993;45.320;11.864;2022-09-12T08:57:28;101960.59;;;26.05
69552;BMP280;58993;45.320;11.864;2022-09-12T08:59:54;101956.95;;;26.07
69552;BMP280;58993;45.320;11.864;2022-09-12T09:05:56;101955.77;;;26.09
69552;BMP280;58993;45.320;11.864;2022-09-12T09:11:13;101948.80;;;26.09
69552;BMP280;58993;45.320;11.864;2022-09-12T09:14:11;101946.40;;;26.12
69552;BMP280;58993;45.320;11.864;2022-09-12T09:16:58;101946.65;;;26.15
69552;BMP280;58993;45.320;11.864;2022-09-12T09:19:29;101946.55;;;26.16
69552;BMP280;58993;45.320;11.864;2022-09-12T09:24:44;101942.67;;;26.16
69552;BMP280;58993;45.320;11.864;2022-09-12T09:27:18;101936.86;;;26.18
69552;BMP280;58993;45.320;11.864;2022-09-12T09:29:50;101936.73;;;26.19
69552;BMP280;58993;45.320;11.864;2022-09-12T09:32:25;101934.50;;;26.20
69552;BMP280;58993;45.320;11.864;2022-09-12T09:34:50;101933.89;;;26.23
69552;BMP280;58993;45.320;11.864;2022-09-12T09:37:41;101933.92;;;26.23
69552;BMP280;58993;45.320;11.864;2022-09-12T09:40:23;101934.24;;;26.27
69552;BMP280;58993;45.320;11.864;2022-09-12T09:43:34;101931.01;;;26.28
69552;BMP280;58993;45.320;11.864;2022-09-12T09:45:53;101925.60;;;26.28
69552;BMP280;58993;45.320;11.864;2022-09-12T09:48:28;101923.49;;;26.27
69552;BMP280;58993;45.320;11.864;2022-09-12T09:50:58;101922.70;;;26.29
69552;BMP280;58993;45.320;11.864;2022-09-12T09:55:51;101921.74;;;26.30
69552;BMP280;58993;45.320;11.864;2022-09-12T09:58:31;101918.27;;;26.28
69552;BMP280;58993;45.320;11.864;2022-09-12T10:00:59;101921.67;;;26.30
69552;BMP280;58993;45.320;11.864;2022-09-12T10:03:52;101922.65;;;26.31
69552;BMP280;58993;45.320;11.864;2022-09-12T10:06:34;101925.48;;;26.31
69552;BMP280;58993;45.320;11.864;2022-09-12T10:09:28;101920.01;;;26.29
69552;BMP280;58993;45.320;11.864;2022-09-12T10:11:54;101921.29;;;26.29
69552;BMP280;58993;45.320;11.864;2022-09-12T10:16:55;101919.59;;;26.32
69552;BMP280;58993;45.320;11.864;2022-09-12T10:19:30;101912.85;;;26.32
69552;BMP280;58993;45.320;11.864;2022-09-12T10:21:57;101910.00;;;26.36
69552;BMP280;58993;45.320;11.864;2022-09-12T10:24:40;101912.09;;;26.36
69552;BMP280;58993;45.320;11.864;2022-09-12T10:29:45;101906.77;;;26.38
69552;BMP280;58993;45.320;11.864;2022-09-12T10:32:20;101905.71;;;26.37
69552;BMP280;58993;45.320;11.864;2022-09-12T10:34:47;101903.81;;;26.38
69552;BMP280;58993;45.320;11.864;2022-09-12T10:37:31;101900.52;;;26.36
69552;BMP280;58993;45.320;11.864;2022-09-12T10:39:59;101901.48;;;26.38
69552;BMP280;58993;45.320;11.864;2022-09-12T10:42:47;101898.98;;;26.38
69552;BMP280;58993;45.320;11.864;2022-09-12T10:45:34;101894.92;;;26.39
69552;BMP280;58993;45.320;11.864;2022-09-12T10:48:03;101891.77;;;26.38
69552;BMP280;58993;45.320;11.864;2022-09-12T10:50:47;101894.28;;;26.39
69552;BMP280;58993;45.320;11.864;2022-09-12T10:55:58;101894.63;;;26.41
69552;BMP280;58993;45.320;11.864;2022-09-12T11:09:41;101889.91;;;26.39
69552;BMP280;58993;45.320;11.864;2022-09-12T11:12:40;101888.23;;;26.41
69552;BMP280;58993;45.320;11.864;2022-09-12T11:34:55;101875.02;;;26.49
69552;BMP280;58993;45.320;11.864;2022-09-12T11:42:51;101872.33;;;26.50
69552;BMP280;58993;45.320;11.864;2022-09-12T11:45:26;101865.70;;;26.47
69552;BMP280;58993;45.320;11.864;2022-09-12T11:47:56;101866.09;;;26.48
69552;BMP280;58993;45.320;11.864;2022-09-12T11:50:29;101863.90;;;26.48
69552;BMP280;58993;45.320;11.864;2022-09-12T11:53:02;101863.85;;;26.47
69552;BMP280;58993;45.320;11.864;2022-09-12T11:55:37;101858.74;;;26.49
69552;BMP280;58993;45.320;11.864;2022-09-12T11:58:07;101854.73;;;26.51
69552;BMP280;58993;45.320;11.864;2022-09-12T12:00:52;101856.08;;;26.53
69552;BMP280;58993;45.320;11.864;2022-09-12T12:03:34;101855.98;;;26.55
69552;BMP280;58993;45.320;11.864;2022-09-12T12:08:51;101856.31;;;26.57
69552;BMP280;58993;45.320;11.864;2022-09-12T12:11:30;101849.99;;;26.54
69552;BMP280;58993;45.320;11.864;2022-09-12T12:14:00;101846.40;;;26.56
69552;BMP280;58993;45.320;11.864;2022-09-12T12:18:59;101844.68;;;26.57
69552;BMP280;58993;45.320;11.864;2022-09-12T12:21:35;101838.66;;;26.57
69552;BMP280;58993;45.320;11.864;2022-09-12T12:24:11;101838.16;;;26.58
69552;BMP280;58993;45.320;11.864;2022-09-12T12:29:03;101833.98;;;26.55
69552;BMP280;58993;45.320;11.864;2022-09-12T12:31:30;101829.13;;;26.55
69552;BMP280;58993;45.320;11.864;2022-09-12T12:34:03;101831.27;;;26.54
69552;BMP280;58993;45.320;11.864;2022-09-12T12:36:37;101830.12;;;26.57
69552;BMP280;58993;45.320;11.864;2022-09-12T12:42:01;101822.38;;;26.59
69552;BMP280;58993;45.320;11.864;2022-09-12T12:52:58;101814.63;;;26.65
69552;BMP280;58993;45.320;11.864;2022-09-12T12:55:38;101811.44;;;26.65
69552;BMP280;58993;45.320;11.864;2022-09-12T12:58:39;101804.95;;;26.64
69552;BMP280;58993;45.320;11.864;2022-09-12T13:01:13;101799.90;;;26.63
69552;BMP280;58993;45.320;11.864;2022-09-12T13:03:45;101793.37;;;26.61
69552;BMP280;58993;45.320;11.864;2022-09-12T13:06:37;101793.69;;;26.62
69552;BMP280;58993;45.320;11.864;2022-09-12T13:12:08;101787.31;;;26.64
69552;BMP280;58993;45.320;11.864;2022-09-12T13:14:51;101788.11;;;26.65
69552;BMP280;58993;45.320;11.864;2022-09-12T13:19:53;101785.02;;;26.65
69552;BMP280;58993;45.320;11.864;2022-09-12T13:22:21;101783.17;;;26.67
69552;BMP280;58993;45.320;11.864;2022-09-12T13:24:48;101777.66;;;26.69
69552;BMP280;58993;45.320;11.864;2022-09-12T13:27:22;101773.52;;;26.69
69552;BMP280;58993;45.320;11.864;2022-09-12T13:29:48;101766.59;;;26.70
69552;BMP280;58993;45.320;11.864;2022-09-12T13:32:15;101764.17;;;26.72
69552;BMP280;58993;45.320;11.864;2022-09-12T13:40:38;101757.16;;;26.75
69552;BMP280;58993;45.320;11.864;2022-09-12T13:43:11;101758.02;;;26.75
69552;BMP280;58993;45.320;11.864;2022-09-12T13:45:40;101749.96;;;26.72
69552;BMP280;58993;45.320;11.864;2022-09-12T13:48:14;101755.31;;;26.74
69552;BMP280;58993;45.320;11.864;2022-09-12T13:50:52;101752.08;;;26.72
69552;BMP280;58993;45.320;11.864;2022-09-12T13:53:22;101749.95;;;26.71
69552;BMP280;58993;45.320;11.864;2022-09-12T13:55:55;101745.06;;;26.71
69552;BMP280;58993;45.320;11.864;2022-09-12T14:01:36;101738.76;;;26.73
69552;BMP280;58993;45.320;11.864;2022-09-12T14:04:14;101735.45;;;26.74
69552;BMP280;58993;45.320;11.864;2022-09-12T14:06:59;101732.55;;;26.73
69552;BMP280;58993;45.320;11.864;2022-09-12T14:11:53;101728.02;;;26.75
69552;BMP280;58993;45.320;11.864;2022-09-12T14:16:51;101720.98;;;26.76
69552;BMP280;58993;45.320;11.864;2022-09-12T14:19:27;101718.17;;;26.76
69552;BMP280;58993;45.320;11.864;2022-09-12T14:21:55;101712.41;;;26.77
69552;BMP280;58993;45.320;11.864;2022-09-12T14:24:22;101709.13;;;26.79
69552;BMP280;58993;45.320;11.864;2022-09-12T14:26:51;101704.62;;;26.81
69552;BMP280;58993;45.320;11.864;2022-09-12T14:29:18;101700.02;;;26.82
69552;BMP280;58993;45.320;11.864;2022-09-12T14:31:44;101695.42;;;26.83
69552;BMP280;58993;45.320;11.864;2022-09-12T14:34:13;101694.13;;;26.84
69552;BMP280;58993;45.320;11.864;2022-09-12T14:36:53;101690.91;;;26.85
69552;BMP280;58993;45.320;11.864;2022-09-12T14:39:37;101695.21;;;26.88
69552;BMP280;58993;45.320;11.864;2022-09-12T14:42:05;101691.45;;;26.86
69552;BMP280;58993;45.320;11.864;2022-09-12T14:44:31;101690.27;;;26.86
69552;BMP280;58993;45.320;11.864;2022-09-12T14:47:11;101688.95;;;26.86
69552;BMP280;58993;45.320;11.864;2022-09-12T14:49:38;101688.91;;;26.89
69552;BMP280;58993;45.320;11.864;2022-09-12T14:52:07;101686.75;;;26.86
69552;BMP280;58993;45.320;11.864;2022-09-12T15:00:09;101678.58;;;26.89
69552;BMP280;58993;45.320;11.864;2022-09-12T15:02:40;101677.77;;;26.89
69552;BMP280;58993;45.320;11.864;2022-09-12T15:07:34;101668.38;;;26.88
69552;BMP280;58993;45.320;11.864;2022-09-12T15:15:34;101677.23;;;26.90
69552;BMP280;58993;45.320;11.864;2022-09-12T15:17:59;101670.93;;;26.89
69552;BMP280;58993;45.320;11.864;2022-09-12T15:20:25;101668.41;;;26.89
69552;BMP280;58993;45.320;11.864;2022-09-12T15:22:51;101668.18;;;26.89
69552;BMP280;58993;45.320;11.864;2022-09-12T15:25:17;101666.85;;;26.88
69552;BMP280;58993;45.320;11.864;2022-09-12T15:27:43;101665.23;;;26.87
69552;BMP280;58993;45.320;11.864;2022-09-12T15:30:09;101660.25;;;26.86
69552;BMP280;58993;45.320;11.864;2022-09-12T15:32:35;101658.89;;;26.86
69552;BMP280;58993;45.320;11.864;2022-09-12T15:35:01;101658.95;;;26.87
69552;BMP280;58993;45.320;11.864;2022-09-12T15:37:29;101659.05;;;26.87
69552;BMP280;58993;45.320;11.864;2022-09-12T15:39:55;101662.92;;;26.88
69552;BMP280;58993;45.320;11.864;2022-09-12T15:42:26;101666.35;;;26.90
69552;BMP280;58993;45.320;11.864;2022-09-12T15:44:54;101666.55;;;26.92
69552;BMP280;58993;45.320;11.864;2022-09-12T15:47:24;101664.36;;;26.90
69552;BMP280;58993;45.320;11.864;2022-09-12T15:49:50;101661.67;;;26.90
69552;BMP280;58993;45.320;11.864;2022-09-12T15:52:15;101658.82;;;26.91
69552;BMP280;58993;45.320;11.864;2022-09-12T15:54:41;101656.70;;;26.91
69552;BMP280;58993;45.320;11.864;2022-09-12T15:57:07;101655.48;;;26.92
69552;BMP280;58993;45.320;11.864;2022-09-12T15:59:32;101654.63;;;26.94
69552;BMP280;58993;45.320;11.864;2022-09-12T16:01:58;101649.64;;;26.94
69552;BMP280;58993;45.320;11.864;2022-09-12T16:04:26;101652.66;;;26.95
69552;BMP280;58993;45.320;11.864;2022-09-12T16:06:53;101650.48;;;26.96
69552;BMP280;58993;45.320;11.864;2022-09-12T16:09:19;101652.15;;;26.97
69552;BMP280;58993;45.320;11.864;2022-09-12T16:11:45;101650.37;;;26.98
69552;BMP280;58993;45.320;11.864;2022-09-12T16:14:15;101650.31;;;26.98
69552;BMP280;58993;45.320;11.864;2022-09-12T16:16:41;101651.39;;;26.99
69552;BMP280;58993;45.320;11.864;2022-09-12T16:19:07;101652.29;;;26.99
69552;BMP280;58993;45.320;11.864;2022-09-12T16:21:34;101652.10;;;27.02
69552;BMP280;58993;45.320;11.864;2022-09-12T16:24:00;101651.40;;;27.02
69552;BMP280;58993;45.320;11.864;2022-09-12T16:26:26;101651.45;;;27.03
69552;BMP280;58993;45.320;11.864;2022-09-12T16:28:58;101651.55;;;27.02
69552;BMP280;58993;45.320;11.864;2022-09-12T16:31:25;101650.66;;;27.03
69552;BMP280;58993;45.320;11.864;2022-09-12T16:33:52;101649.12;;;27.02
69552;BMP280;58993;45.320;11.864;2022-09-12T16:36:19;101647.06;;;27.00
69552;BMP280;58993;45.320;11.864;2022-09-12T16:38:47;101647.62;;;27.01
69552;BMP280;58993;45.320;11.864;2022-09-12T16:41:13;101645.31;;;27.00
69552;BMP280;58993;45.320;11.864;2022-09-12T16:43:40;101647.33;;;27.03
69552;BMP280;58993;45.320;11.864;2022-09-12T16:46:13;101648.55;;;27.01